createdAt,value
2017-06-23T00:00:07.055Z,15.53
2017-06-23T00:02:33.135Z,15.07
2017-06-23T00:04:59.983Z,13.83
2017-06-23T00:07:25.973Z,15.90
2017-06-23T00:09:51.929Z,14.10
2017-06-23T00:12:17.935Z,14.87
2017-06-23T00:14:43.907Z,16.57
2017-06-23T00:17:09.891Z,16.70
2017-06-23T00:19:37.129Z,16.17
2017-06-23T00:22:03.114Z,15.47
2017-06-23T00:24:29.098Z,15.17
2017-06-23T00:26:55.049Z,15.87
2017-06-23T00:29:21.077Z,16.63
2017-06-23T00:31:47.782Z,16.67
2017-06-23T00:34:14.219Z,15.57
2017-06-23T00:36:40.979Z,16.53
2017-06-23T00:39:06.993Z,17.20
2017-06-23T00:41:32.970Z,17.37
2017-06-23T00:43:58.924Z,16.27
2017-06-23T00:46:24.909Z,17.70
2017-06-23T00:48:50.902Z,16.10
2017-06-23T00:51:16.859Z,16.20
2017-06-23T00:53:42.902Z,17.50
2017-06-23T00:56:08.946Z,16.70
2017-06-23T00:58:34.944Z,16.30
2017-06-23T01:01:00.898Z,15.70
2017-06-23T01:03:26.886Z,15.07
2017-06-23T01:05:52.842Z,14.23
2017-06-23T01:08:19.587Z,16.50
2017-06-23T01:10:45.566Z,15.33
2017-06-23T01:13:11.639Z,16.17
2017-06-23T01:15:37.774Z,17.07
2017-06-23T01:18:03.754Z,17.13
2017-06-23T01:20:29.750Z,15.93
2017-06-23T01:22:55.700Z,15.97
2017-06-23T01:25:21.683Z,16.20
2017-06-23T01:27:47.675Z,15.50
2017-06-23T01:30:13.674Z,15.33
2017-06-23T01:32:39.650Z,14.70
2017-06-23T01:35:05.618Z,16.80
2017-06-23T01:37:31.598Z,13.60
2017-06-23T01:39:57.546Z,12.83
2017-06-23T01:42:23.512Z,12.93
2017-06-23T01:44:49.465Z,13.17
2017-06-23T01:47:15.437Z,14.93
2017-06-23T01:49:41.406Z,12.77
2017-06-23T01:52:07.389Z,11.30
2017-06-23T01:54:33.337Z,12.07
2017-06-23T01:56:59.276Z,12.37
2017-06-23T01:59:25.278Z,14.33
2017-06-23T02:01:51.241Z,10.60
2017-06-23T02:04:17.233Z,10.90
2017-06-23T02:06:43.185Z,13.83
2017-06-23T02:09:09.180Z,11.93
2017-06-23T02:11:35.928Z,10.10
2017-06-23T02:14:01.873Z,9.70
2017-06-23T02:16:27.846Z,10.07
2017-06-23T02:18:53.801Z,10.57
2017-06-23T02:21:19.838Z,9.23
2017-06-23T02:23:45.790Z,10.10
2017-06-23T02:26:11.761Z,11.70
2017-06-23T02:28:37.765Z,9.27
2017-06-23T02:31:03.736Z,12.07
2017-06-23T02:33:30.433Z,10.43
2017-06-23T02:35:56.397Z,9.90
2017-06-23T02:38:22.377Z,9.43
2017-06-23T02:40:49.093Z,9.03
2017-06-23T02:43:15.826Z,9.83
2017-06-23T02:45:42.513Z,10.87
2017-06-23T02:48:08.477Z,10.87
2017-06-23T02:50:34.455Z,11.13
2017-06-23T02:53:00.392Z,8.90
2017-06-23T02:55:26.365Z,10.70
2017-06-23T02:57:52.323Z,9.87
2017-06-23T03:00:18.350Z,11.53
2017-06-23T03:02:44.310Z,11.90
2017-06-23T03:05:11.013Z,13.60
2017-06-23T03:07:37.012Z,13.40
2017-06-23T03:10:02.978Z,14.13
2017-06-23T03:12:28.962Z,17.93
2017-06-23T03:14:55.700Z,19.40
2017-06-23T03:17:21.650Z,22.20
2017-06-23T03:19:47.609Z,26.03
2017-06-23T03:22:13.590Z,21.17
2017-06-23T03:24:39.592Z,23.60
2017-06-23T03:27:05.585Z,21.93
2017-06-23T03:29:31.540Z,22.00
2017-06-23T03:31:57.522Z,21.73
2017-06-23T03:34:23.466Z,22.57
2017-06-23T03:36:49.421Z,22.60
2017-06-23T03:39:15.404Z,23.60
2017-06-23T03:41:41.381Z,23.67
2017-06-23T03:44:07.361Z,24.80
2017-06-23T03:46:33.333Z,22.00
2017-06-23T03:48:59.305Z,34.87
2017-06-23T03:51:25.325Z,26.50
2017-06-23T03:53:51.268Z,23.20
2017-06-23T03:56:17.961Z,28.90
2017-06-23T03:58:43.938Z,27.00
2017-06-23T04:01:09.998Z,24.10
2017-06-23T04:03:35.963Z,25.70
2017-06-23T04:06:01.930Z,27.00
2017-06-23T04:08:27.922Z,24.57
2017-06-23T04:10:53.904Z,24.17
2017-06-23T04:13:19.893Z,24.87
2017-06-23T04:15:46.606Z,29.10
2017-06-23T04:18:12.577Z,31.47
2017-06-23T04:20:38.525Z,30.47
2017-06-23T04:23:04.512Z,32.03
2017-06-23T04:25:30.493Z,33.37
2017-06-23T04:27:56.463Z,27.60
2017-06-23T04:30:22.450Z,25.90
2017-06-23T04:32:48.434Z,25.43
2017-06-23T04:35:14.377Z,26.47
2017-06-23T04:37:40.361Z,28.17
2017-06-23T04:40:06.320Z,28.27
2017-06-23T04:42:32.356Z,28.47
2017-06-23T04:44:58.304Z,29.73
2017-06-23T04:47:24.258Z,27.37
2017-06-23T04:49:50.262Z,26.73
2017-06-23T04:52:16.209Z,29.33
2017-06-23T04:54:42.210Z,28.70
2017-06-23T04:57:08.163Z,31.83
2017-06-23T04:59:34.925Z,34.77
2017-06-23T05:02:00.872Z,28.30
2017-06-23T05:04:26.854Z,27.67
2017-06-23T05:06:52.866Z,30.40
2017-06-23T05:09:18.901Z,32.63
2017-06-23T05:11:44.854Z,29.23
2017-06-23T05:14:11.553Z,30.00
2017-06-23T05:16:37.577Z,30.73
2017-06-23T05:19:04.381Z,28.77
2017-06-23T05:21:30.365Z,31.10
2017-06-23T05:23:56.317Z,35.53
2017-06-23T05:26:22.289Z,36.43
2017-06-23T05:28:48.264Z,33.53
2017-06-23T05:31:14.217Z,32.50
2017-06-23T05:33:40.209Z,37.33
2017-06-23T05:36:06.192Z,37.60
2017-06-23T05:38:32.180Z,31.20
2017-06-23T05:40:58.877Z,28.80
2017-06-23T05:43:24.840Z,27.37
2017-06-23T05:45:50.898Z,32.00
2017-06-23T05:48:16.848Z,34.73
2017-06-23T05:50:42.894Z,29.93
2017-06-23T05:53:08.868Z,33.20
2017-06-23T05:55:34.862Z,28.43
2017-06-23T05:58:01.557Z,30.73
2017-06-23T06:00:27.585Z,31.63
2017-06-23T06:02:53.546Z,29.53
2017-06-23T06:05:19.501Z,33.67
2017-06-23T06:07:45.549Z,38.63
2017-06-23T06:10:12.254Z,36.00
2017-06-23T06:12:38.292Z,30.40
2017-06-23T06:15:04.248Z,31.13
2017-06-23T06:17:30.233Z,28.30
2017-06-23T06:19:56.176Z,29.37
2017-06-23T06:22:22.121Z,27.70
2017-06-23T06:24:48.888Z,27.83
2017-06-23T06:27:15.100Z,28.73
2017-06-23T06:29:41.052Z,29.57
2017-06-23T06:32:07.039Z,28.37
2017-06-23T06:34:32.989Z,29.20
2017-06-23T06:36:59.735Z,28.40
2017-06-23T06:39:25.689Z,32.00
2017-06-23T06:41:51.650Z,25.10
2017-06-23T06:44:17.670Z,24.73
2017-06-23T06:46:43.669Z,30.17
2017-06-23T06:49:09.617Z,24.87
2017-06-23T06:51:35.602Z,29.23
2017-06-23T06:54:01.569Z,25.67
2017-06-23T06:56:27.569Z,26.90
2017-06-23T06:58:53.523Z,27.30
2017-06-23T07:01:19.575Z,23.90
2017-06-23T07:03:46.336Z,23.73
2017-06-23T07:06:13.078Z,27.40
2017-06-23T07:08:39.057Z,25.60
2017-06-23T07:11:05.827Z,22.63
2017-06-23T07:13:31.777Z,21.80
2017-06-23T07:15:57.725Z,23.77
2017-06-23T07:18:23.730Z,25.93
2017-06-23T07:20:49.689Z,23.10
2017-06-23T07:23:15.713Z,23.53
2017-06-23T07:25:42.445Z,23.70
2017-06-23T07:28:08.410Z,23.87
2017-06-23T07:30:34.410Z,23.57
2017-06-23T07:33:00.362Z,23.63
2017-06-23T07:35:26.318Z,27.03
2017-06-23T07:37:52.347Z,21.50
2017-06-23T07:40:18.338Z,27.20
2017-06-23T07:42:44.303Z,23.03
2017-06-23T07:45:11.029Z,22.80
2017-06-23T07:47:37.048Z,22.50
2017-06-23T07:50:03.746Z,22.37
2017-06-23T07:52:29.700Z,21.33
2017-06-23T07:54:55.680Z,21.67
2017-06-23T07:57:22.389Z,24.50
2017-06-23T07:59:48.384Z,24.93
2017-06-23T08:02:14.401Z,22.30
2017-06-23T08:04:40.397Z,24.53
2017-06-23T08:07:06.351Z,25.60
2017-06-23T08:09:33.061Z,22.47
2017-06-23T08:11:59.040Z,23.83
2017-06-23T08:14:24.981Z,24.27
2017-06-23T08:16:51.749Z,24.20
2017-06-23T08:19:17.733Z,22.90
2017-06-23T08:21:43.738Z,24.33
2017-06-23T08:24:10.436Z,24.03
2017-06-23T08:26:36.411Z,24.40
2017-06-23T08:29:02.426Z,25.90
2017-06-23T08:31:28.389Z,26.97
2017-06-23T08:33:55.114Z,25.23
2017-06-23T08:36:21.806Z,23.90
2017-06-23T08:38:47.830Z,24.83
2017-06-23T08:41:13.890Z,25.00
2017-06-23T08:43:39.844Z,23.30
2017-06-23T08:46:05.838Z,27.17
2017-06-23T08:48:31.801Z,23.50
2017-06-23T08:50:57.758Z,26.40
2017-06-23T08:53:23.785Z,24.97
2017-06-23T08:55:49.837Z,23.47
2017-06-23T08:58:15.849Z,21.47
2017-06-23T09:00:41.834Z,23.07
2017-06-23T09:03:07.865Z,22.33
2017-06-23T09:05:33.826Z,22.43
2017-06-23T09:07:59.846Z,21.87
2017-06-23T09:10:26.558Z,22.20
2017-06-23T09:12:52.549Z,21.97
2017-06-23T09:15:18.545Z,21.37
2017-06-23T09:17:44.505Z,19.47
2017-06-23T09:20:11.254Z,18.47
2017-06-23T09:22:37.226Z,18.50
2017-06-23T09:25:03.213Z,18.00
2017-06-23T09:27:29.185Z,18.87
2017-06-23T09:29:55.151Z,20.00
2017-06-23T09:32:21.170Z,17.90
2017-06-23T09:34:47.149Z,17.07
2017-06-23T09:37:13.139Z,15.67
2017-06-23T09:39:39.093Z,16.83
2017-06-23T09:42:05.049Z,17.80
2017-06-23T09:44:31.037Z,15.43
2017-06-23T09:46:57.065Z,16.97
2017-06-23T09:49:23.086Z,17.13
2017-06-23T09:51:49.053Z,16.83
2017-06-23T09:54:15.049Z,19.97
2017-06-23T09:56:41.765Z,16.80
2017-06-23T09:59:07.722Z,15.63
2017-06-23T10:01:33.733Z,14.43
2017-06-23T10:03:59.721Z,16.37
2017-06-23T10:06:25.677Z,16.27
2017-06-23T10:08:51.665Z,23.10
2017-06-23T10:11:17.678Z,14.93
2017-06-23T10:13:43.701Z,19.73
2017-06-23T10:16:09.657Z,17.03
2017-06-23T10:18:35.617Z,16.50
2017-06-23T10:21:01.615Z,17.60
2017-06-23T10:23:27.566Z,17.47
2017-06-23T10:25:54.294Z,16.20
2017-06-23T10:28:20.990Z,18.93
2017-06-23T10:30:46.990Z,17.00
2017-06-23T10:33:12.937Z,17.70
2017-06-23T10:35:39.678Z,21.13
2017-06-23T10:38:05.646Z,16.17
2017-06-23T10:40:31.625Z,16.20
2017-06-23T10:42:57.646Z,17.00
2017-06-23T10:45:23.669Z,16.60
2017-06-23T10:47:49.637Z,17.57
2017-06-23T10:50:15.672Z,16.10
2017-06-23T10:52:41.656Z,16.43
2017-06-23T10:55:07.607Z,15.63
2017-06-23T10:57:33.587Z,16.87
2017-06-23T10:59:59.538Z,16.57
2017-06-23T11:02:26.273Z,16.57
2017-06-23T11:04:52.974Z,15.80
2017-06-23T11:07:18.951Z,16.30
2017-06-23T11:09:44.977Z,16.73
2017-06-23T11:12:10.953Z,14.80
2017-06-23T11:14:36.907Z,16.13
2017-06-23T11:17:02.893Z,13.50
2017-06-23T11:19:28.874Z,15.03
2017-06-23T11:21:54.850Z,14.37
2017-06-23T11:24:20.805Z,14.40
2017-06-23T11:26:46.802Z,13.63
2017-06-23T11:29:12.790Z,13.40
2017-06-23T11:31:38.753Z,14.63
2017-06-23T11:34:04.742Z,13.00
2017-06-23T11:36:30.703Z,12.73
2017-06-23T11:38:57.429Z,13.13
2017-06-23T11:41:24.126Z,12.03
2017-06-23T11:43:50.126Z,12.03
2017-06-23T11:46:16.088Z,11.87
2017-06-23T11:48:42.037Z,11.80
2017-06-23T11:51:08.017Z,11.70
2017-06-23T11:53:33.973Z,12.90
2017-06-23T11:55:59.958Z,10.80
2017-06-23T11:58:25.936Z,11.23
2017-06-23T12:00:51.901Z,10.33
2017-06-23T12:03:17.961Z,9.97
2017-06-23T12:05:43.930Z,10.20
2017-06-23T12:08:09.980Z,9.97
2017-06-23T12:10:35.982Z,9.17
2017-06-23T12:13:02.018Z,9.10
2017-06-23T12:15:27.974Z,14.07
2017-06-23T12:17:54.693Z,10.40
2017-06-23T12:20:20.706Z,9.67
2017-06-23T12:22:47.476Z,11.07
2017-06-23T12:25:13.498Z,14.13
2017-06-23T12:27:39.485Z,10.57
2017-06-23T12:30:05.473Z,11.00
2017-06-23T12:32:32.187Z,11.50
2017-06-23T12:34:58.938Z,13.03
2017-06-23T12:37:24.902Z,11.93
2017-06-23T12:39:50.871Z,11.07
2017-06-23T12:42:16.905Z,10.60
2017-06-23T12:44:42.873Z,11.20
2017-06-23T12:47:08.863Z,10.10
2017-06-23T12:49:35.590Z,10.93
2017-06-23T12:52:02.335Z,10.90
2017-06-23T12:54:28.317Z,10.43
2017-06-23T12:56:55.081Z,9.33
2017-06-23T12:59:21.087Z,10.50
2017-06-23T13:01:47.097Z,9.50
2017-06-23T13:04:13.105Z,9.27
2017-06-23T13:06:39.058Z,8.80
2017-06-23T13:09:05.090Z,12.03
2017-06-23T13:11:31.108Z,9.37
2017-06-23T13:13:57.822Z,8.47
2017-06-23T13:16:23.818Z,8.60
2017-06-23T13:18:49.791Z,9.80
2017-06-23T13:21:15.806Z,8.63
2017-06-23T13:23:41.814Z,10.13
2017-06-23T13:26:07.781Z,9.70
2017-06-23T13:28:34.533Z,9.27
2017-06-23T13:31:00.506Z,9.77
2017-06-23T13:33:26.505Z,10.20
2017-06-23T13:35:52.506Z,9.50
2017-06-23T13:38:19.087Z,8.93
2017-06-23T13:43:29.069Z,7.80
2017-06-23T13:46:05.880Z,7.60
2017-06-23T13:50:14.237Z,6.83
2017-06-23T13:52:40.970Z,7.20
2017-06-23T13:55:07.721Z,6.60
2017-06-23T13:57:36.260Z,6.80
2017-06-23T14:02:31.559Z,6.20
2017-06-23T14:04:58.319Z,6.97
2017-06-23T14:07:25.910Z,7.30
2017-06-23T14:15:15.997Z,9.03
2017-06-23T14:25:22.654Z,8.97
2017-06-23T14:27:48.646Z,10.83
2017-06-23T14:30:14.617Z,9.47
2017-06-23T14:32:40.691Z,7.80
2017-06-23T14:35:06.690Z,8.60
2017-06-23T14:40:15.023Z,9.03
2017-06-23T14:45:14.557Z,7.15
2017-06-23T14:52:26.258Z,6.73
2017-06-23T14:54:52.237Z,6.27
2017-06-23T14:59:45.542Z,6.80
2017-06-23T15:02:12.228Z,6.93
2017-06-23T15:04:38.253Z,6.80
2017-06-23T15:07:04.269Z,6.87
2017-06-23T15:09:30.230Z,8.17
2017-06-23T15:11:56.231Z,7.03
2017-06-23T15:14:22.229Z,6.43
2017-06-23T15:16:48.229Z,8.33
2017-06-23T15:19:14.218Z,7.23
2017-06-23T15:30:24.143Z,7.10
2017-06-23T15:40:22.476Z,8.07
2017-06-23T15:56:10.212Z,8.03
2017-06-23T15:58:36.166Z,7.37
2017-06-23T16:03:36.982Z,9.83
2017-06-23T16:06:03.119Z,9.23
2017-06-23T16:08:29.123Z,7.97
2017-06-23T16:10:55.925Z,9.47
2017-06-23T16:13:21.977Z,10.50
2017-06-23T16:15:47.950Z,9.90
2017-06-23T16:18:13.973Z,10.97
2017-06-23T16:20:40.672Z,11.50
2017-06-23T16:23:06.637Z,10.90
2017-06-23T16:25:32.654Z,10.80
2017-06-23T16:27:58.658Z,11.70
2017-06-23T16:30:24.658Z,12.33
2017-06-23T16:32:50.657Z,12.63
2017-06-23T16:35:16.692Z,12.73
2017-06-23T16:37:42.700Z,12.57
2017-06-23T16:40:08.683Z,13.23
2017-06-23T16:42:35.424Z,12.93
2017-06-23T16:50:17.078Z,12.80
2017-06-23T16:55:09.599Z,13.10
2017-06-23T16:58:05.097Z,12.53
2017-06-23T17:00:31.102Z,13.23
2017-06-23T17:02:57.071Z,13.40
2017-06-23T17:07:58.187Z,13.47
2017-06-23T17:10:24.262Z,14.15
2017-06-23T17:12:51.172Z,13.90
2017-06-23T17:15:17.195Z,13.70
2017-06-23T17:17:43.161Z,14.13
2017-06-23T17:20:09.165Z,14.13
2017-06-23T17:22:35.187Z,13.63
2017-06-23T17:25:05.001Z,15.17
2017-06-23T17:27:30.966Z,13.40
2017-06-23T17:29:56.962Z,14.87
2017-06-23T17:32:22.961Z,13.93
2017-06-23T17:34:49.690Z,15.33
2017-06-23T17:37:15.690Z,15.73
2017-06-23T17:39:42.377Z,14.97
2017-06-23T17:42:08.377Z,15.57
2017-06-23T17:44:34.357Z,15.70
2017-06-23T17:47:00.347Z,15.47
2017-06-23T17:49:26.314Z,16.53
2017-06-23T17:51:52.316Z,15.30
2017-06-23T17:54:18.282Z,16.97
2017-06-23T17:56:44.237Z,16.33
2017-06-23T17:59:10.557Z,16.23
2017-06-23T18:01:36.521Z,15.50
2017-06-23T18:04:02.559Z,16.00
2017-06-23T18:06:28.601Z,16.70
2017-06-23T18:08:54.816Z,17.13
2017-06-23T18:11:20.861Z,15.83
2017-06-23T18:13:46.861Z,16.27
2017-06-23T18:16:13.581Z,16.80
2017-06-23T18:18:40.281Z,15.90
2017-06-23T18:21:06.646Z,17.43
2017-06-23T18:23:32.667Z,17.77
2017-06-23T18:28:39.106Z,17.47
2017-06-23T18:33:54.313Z,17.10
2017-06-23T18:36:20.528Z,17.10
2017-06-23T18:38:46.522Z,17.93
2017-06-23T18:41:12.481Z,17.03
2017-06-23T18:43:39.222Z,17.70
2017-06-23T18:46:05.190Z,17.43
2017-06-23T18:48:31.191Z,17.30
2017-06-23T18:50:57.155Z,17.50
2017-06-23T18:53:23.129Z,18.07
2017-06-23T18:55:49.129Z,17.73
2017-06-23T18:58:15.077Z,18.77
2017-06-23T19:00:41.148Z,17.70
2017-06-23T19:03:07.114Z,17.80
2017-06-23T19:05:33.098Z,18.30
2017-06-23T19:07:59.125Z,18.57
2017-06-23T19:10:25.114Z,18.93
2017-06-23T19:12:51.148Z,19.83
2017-06-23T19:15:17.157Z,19.60
2017-06-23T19:17:43.135Z,20.03
2017-06-23T19:20:09.125Z,19.83
2017-06-23T19:22:35.833Z,18.80
2017-06-23T19:25:01.850Z,20.07
2017-06-23T19:27:28.486Z,19.20
2017-06-23T19:29:54.669Z,19.85
2017-06-23T19:38:33.578Z,19.80
2017-06-23T19:40:59.542Z,18.55
2017-06-23T19:43:26.272Z,20.00
2017-06-23T19:45:52.237Z,21.10
2017-06-23T19:48:18.240Z,20.20
2017-06-23T19:50:44.294Z,19.90
2017-06-23T19:53:11.018Z,21.40
2017-06-23T19:55:37.787Z,20.60
2017-06-23T19:58:03.774Z,20.47
2017-06-23T20:10:45.501Z,21.75
2017-06-23T20:13:11.543Z,23.23
2017-06-23T20:15:38.262Z,21.00
2017-06-23T20:18:04.225Z,22.00
2017-06-23T20:20:30.254Z,20.30
2017-06-23T20:22:56.229Z,21.93
2017-06-23T20:25:22.235Z,21.50
2017-06-23T20:27:48.224Z,21.80
2017-06-23T20:30:14.226Z,22.20
2017-06-23T20:32:40.246Z,22.60
2017-06-23T20:35:06.207Z,25.30
2017-06-23T20:37:32.214Z,24.07
2017-06-23T20:39:58.186Z,22.27
2017-06-23T20:47:36.695Z,22.70
2017-06-23T20:50:02.656Z,22.40
2017-06-23T20:52:28.610Z,22.57
2017-06-23T20:54:54.606Z,22.47
2017-06-23T20:57:20.600Z,25.27
2017-06-23T20:59:46.690Z,24.10
2017-06-23T21:02:12.655Z,25.37
2017-06-23T21:04:38.645Z,24.17
2017-06-23T21:07:04.641Z,23.00
2017-06-23T21:09:31.430Z,24.67
2017-06-23T21:11:57.393Z,25.43
2017-06-23T21:14:23.441Z,24.73
2017-06-23T21:16:49.405Z,25.00
2017-06-23T21:19:15.366Z,25.80
2017-06-23T21:21:41.366Z,24.03
2017-06-23T21:24:07.341Z,25.57
2017-06-23T21:26:33.346Z,26.73
2017-06-23T21:28:59.306Z,24.97
2017-06-23T21:31:25.343Z,26.80
2017-06-23T21:33:52.081Z,26.17
2017-06-23T21:36:18.099Z,25.80
2017-06-23T21:38:44.081Z,27.33
2017-06-23T21:41:25.194Z,27.40
2017-06-23T21:43:53.919Z,27.30
2017-06-23T21:46:19.949Z,25.60
2017-06-23T22:01:52.108Z,29.90
2017-06-23T22:15:04.398Z,28.37
2017-06-23T22:17:31.151Z,30.57
2017-06-23T22:20:02.973Z,30.00
2017-06-23T22:30:26.681Z,31.50
2017-06-23T22:33:02.325Z,29.30
2017-06-23T22:35:28.298Z,30.97
2017-06-23T22:37:54.253Z,27.67
2017-06-23T22:40:20.271Z,28.20
2017-06-23T22:42:46.244Z,30.67
2017-06-23T22:45:12.241Z,29.00
2017-06-23T22:50:08.523Z,31.77
2017-06-23T22:55:01.341Z,37.20
2017-06-23T22:57:27.377Z,35.23
2017-06-23T22:59:53.355Z,36.93
2017-06-23T23:02:20.423Z,35.30
2017-06-23T23:18:08.866Z,30.27
2017-06-23T23:23:13.474Z,28.87
2017-06-23T23:25:40.184Z,29.33
2017-06-23T23:28:06.190Z,29.70
2017-06-23T23:30:32.154Z,28.13
2017-06-23T23:32:58.140Z,28.70
2017-06-23T23:35:24.121Z,25.93
2017-06-23T23:37:50.068Z,25.27
2017-06-23T23:40:16.813Z,28.40
2017-06-23T23:42:42.777Z,28.23
2017-06-23T23:45:08.741Z,29.77
2017-06-23T23:47:34.725Z,29.57
2017-06-23T23:50:01.442Z,30.40
2017-06-23T23:55:32.869Z,28.98
2017-06-23T23:57:58.866Z,30.10
